PAKTPASI

Guest
Details From PAKT - KETCHIKAN INTL
To PASI - SITKA ROCKY GUTIERREZ
Flight Number -
Tags generated
Created
Modified
Stats Distance 160 nm / 297 km
Max Altitude 20,200 ft / 6,157 m
Waypoints 3
Social Downloads 0
Likes 0
Share VATSIM

Download

Looking for another format? Having issues loading an existing format? Contact us
Advertisement - Login to hide

Notes

Basic altitude profile: - Ascent Rate: 2500ft/min - Ascent Speed: 250kts - Cruise Altitude: 20000ft - Cruise Speed: 420kts - Descent Rate: 1500ft/min - Descent Speed: 250kts Options: - Use NATs: yes - Use PACOTS: yes - Use low airways: yes - Use high airways: yes

Route

PAKT TOKEE PASI

ID Type Via Altitude Latitude Longitude Leg Dist Tot Dist Heading (true) Name
O PAKT APT - 0 ft / 0 m 55.35554˚ -131.71374˚ - 0 nm - KETCHIKAN INTL
TOKEE FIX - 20,200 ft / 6,157 m 55.91250˚ -133.37881˚ 65 nm 65 nm 301° / 300° -
O PASI APT - 0 ft / 0 m 57.04713˚ -135.36160˚ 94 nm 160 nm 317° / 315° SITKA ROCKY GUTIERREZ

Altitude Profile

Advertisement - Login to hide

PAKT

Details ICAO PAKT (KTN)
Name KETCHIKAN INTL
Region USA (Alaska)
Timezone Unknown (UTC+0.0)
Stats Elevation 88 ft / 27 m (AMSL)
Location 55.355545° -131.713737°
Runways 1
Magnetic Variation 18.431° E

METAR

PAKT 211053Z AUTO 15013G19KT 3SM RA BR OVC015 10/09 A2989

Decode

TAF

PAKT 210941Z 2110/2206 14012G22KT 4SM -RA OVC015 WS020/16035KT TEMPO 2110/2112 2SM RA BR FM211200 14016G26KT 4SM -RA SCT015 BKN025 OVC035 WS020/16040KT FM211800 14018G28KT 4SM -RA BR OVC015 WS020/16045KT FM220000 14015G25KT 4SM -RA BR OVC025 WS020/16050KT AMD LTD TO CLD VIS AND WIND 2106/2115

Decode

Departure Runways

ID Width Length Bearing (true) Bearing (mag) Surface Threshold Offset Overrun Length
11 150 ft / 46 m 7,485 ft / 2,281 m 135.66° 117.23° Asphalt 0 ft / 0 m 200 ft / 61 m
29 150 ft / 46 m 7,485 ft / 2,281 m 315.68° 297.25° Asphalt 0 ft / 0 m 100 ft / 30 m

PASI

Details ICAO PASI (SIT)
Name SITKA ROCKY GUTIERREZ
Region USA (Alaska)
Timezone America/Juneau (UTC-8.0)
Stats Elevation 21 ft / 6 m (AMSL)
Location 57.047128° -135.361597°
Runways 1
Magnetic Variation 18.634° E

METAR

PASI 211053Z 15007KT 7SM -RA OVC039 09/08 A2972

Decode

TAF

PASI 211004Z 2110/2206 14010KT 6SM -RA BR SCT015 OVC035 WS020/15040KT FM211800 12018G28KT 4SM -RA BR OVC015 WS020/15045KT FM220000 14011KT 5SM -RA BR SCT015 OVC025

Decode

Destination Runways

ID Width Length Bearing (true) Bearing (mag) Surface Threshold Offset Overrun Length
11 150 ft / 46 m 6,485 ft / 1,977 m 135.57° 116.94° Asphalt 0 ft / 0 m 0 ft / 0 m
29 150 ft / 46 m 6,485 ft / 1,977 m 315.59° 296.96° Asphalt 0 ft / 0 m 0 ft / 0 m

Approach Navaids

Runway Type Ident Frequency Range Bearing (true) Bearing (mag) Slope Elevation
11 Localiser ISIT 108.90 MHz 18 nm / 33 km 143.51° 124.87° - 15 ft / 5 m (AMSL)
11 DME ISIT 108.90 MHz 18 nm / 33 km - - - 34 ft / 10 m (AMSL)

Popular Alternatives